sensor_id;sensor_type;location;lat;lon;timestamp;temperature;humidity
81902;DHT22;71369;50.796;3.290;2023-08-24T00:01:17;19.80;77.80
81902;DHT22;71369;50.796;3.290;2023-08-24T00:03:46;19.80;77.70
81902;DHT22;71369;50.796;3.290;2023-08-24T00:06:13;19.90;77.70
81902;DHT22;71369;50.796;3.290;2023-08-24T00:08:39;20.00;77.50
81902;DHT22;71369;50.796;3.290;2023-08-24T00:11:04;20.00;77.40
81902;DHT22;71369;50.796;3.290;2023-08-24T00:13:31;20.00;77.20
81902;DHT22;71369;50.796;3.290;2023-08-24T00:15:57;20.10;76.80
81902;DHT22;71369;50.796;3.290;2023-08-24T00:18:23;20.30;76.30
81902;DHT22;71369;50.796;3.290;2023-08-24T00:20:49;20.40;76.10
81902;DHT22;71369;50.796;3.290;2023-08-24T00:23:15;20.40;75.60
81902;DHT22;71369;50.796;3.290;2023-08-24T00:25:42;20.50;75.20
81902;DHT22;71369;50.796;3.290;2023-08-24T00:28:08;20.50;75.70
81902;DHT22;71369;50.796;3.290;2023-08-24T00:30:34;20.50;76.10
81902;DHT22;71369;50.796;3.290;2023-08-24T00:32:59;20.50;76.30
81902;DHT22;71369;50.796;3.290;2023-08-24T00:35:25;20.50;75.10
81902;DHT22;71369;50.796;3.290;2023-08-24T00:37:51;20.50;74.90
81902;DHT22;71369;50.796;3.290;2023-08-24T00:40:17;20.60;74.70
81902;DHT22;71369;50.796;3.290;2023-08-24T00:42:44;20.60;74.40
81902;DHT22;71369;50.796;3.290;2023-08-24T00:45:12;20.70;74.90
81902;DHT22;71369;50.796;3.290;2023-08-24T00:47:46;20.70;74.40
81902;DHT22;71369;50.796;3.290;2023-08-24T00:50:13;20.70;74.30
81902;DHT22;71369;50.796;3.290;2023-08-24T00:52:40;20.60;74.70
81902;DHT22;71369;50.796;3.290;2023-08-24T00:55:07;20.50;75.60
81902;DHT22;71369;50.796;3.290;2023-08-24T00:57:35;20.50;76.70
81902;DHT22;71369;50.796;3.290;2023-08-24T01:00:03;20.50;77.70
81902;DHT22;71369;50.796;3.290;2023-08-24T01:02:31;20.40;79.10
81902;DHT22;71369;50.796;3.290;2023-08-24T01:04:58;20.30;80.60
81902;DHT22;71369;50.796;3.290;2023-08-24T01:07:24;20.20;80.80
81902;DHT22;71369;50.796;3.290;2023-08-24T01:09:51;20.20;81.30
81902;DHT22;71369;50.796;3.290;2023-08-24T01:15:13;19.90;81.70
81902;DHT22;71369;50.796;3.290;2023-08-24T01:17:42;19.70;82.80
81902;DHT22;71369;50.796;3.290;2023-08-24T01:20:10;19.70;83.70
81902;DHT22;71369;50.796;3.290;2023-08-24T01:25:45;19.50;83.70
81902;DHT22;71369;50.796;3.290;2023-08-24T01:28:13;19.50;83.60
81902;DHT22;71369;50.796;3.290;2023-08-24T01:30:38;19.40;84.10
81902;DHT22;71369;50.796;3.290;2023-08-24T01:33:04;19.40;83.90
81902;DHT22;71369;50.796;3.290;2023-08-24T01:35:31;19.30;84.60
81902;DHT22;71369;50.796;3.290;2023-08-24T01:37:58;19.20;84.90
81902;DHT22;71369;50.796;3.290;2023-08-24T01:40:41;19.10;85.50
81902;DHT22;71369;50.796;3.290;2023-08-24T01:43:10;19.10;85.30
81902;DHT22;71369;50.796;3.290;2023-08-24T01:45:36;19.10;85.10
81902;DHT22;71369;50.796;3.290;2023-08-24T01:48:03;19.10;84.80
81902;DHT22;71369;50.796;3.290;2023-08-24T01:50:30;19.10;84.80
81902;DHT22;71369;50.796;3.290;2023-08-24T01:52:57;19.10;84.90
81902;DHT22;71369;50.796;3.290;2023-08-24T01:55:23;19.00;85.20
81902;DHT22;71369;50.796;3.290;2023-08-24T01:57:49;18.90;86.50
81902;DHT22;71369;50.796;3.290;2023-08-24T02:00:15;18.80;85.80
81902;DHT22;71369;50.796;3.290;2023-08-24T02:02:44;18.80;86.20
81902;DHT22;71369;50.796;3.290;2023-08-24T02:05:10;18.80;86.10
81902;DHT22;71369;50.796;3.290;2023-08-24T02:07:36;18.70;86.50
81902;DHT22;71369;50.796;3.290;2023-08-24T02:10:02;18.70;86.50
81902;DHT22;71369;50.796;3.290;2023-08-24T02:12:27;18.80;85.80
81902;DHT22;71369;50.796;3.290;2023-08-24T02:14:53;18.80;85.70
81902;DHT22;71369;50.796;3.290;2023-08-24T02:17:19;18.80;85.70
81902;DHT22;71369;50.796;3.290;2023-08-24T02:19:44;18.70;86.00
81902;DHT22;71369;50.796;3.290;2023-08-24T02:22:10;18.80;85.50
81902;DHT22;71369;50.796;3.290;2023-08-24T02:24:36;18.80;85.70
81902;DHT22;71369;50.796;3.290;2023-08-24T02:27:02;18.80;85.30
81902;DHT22;71369;50.796;3.290;2023-08-24T02:29:28;18.80;85.30
81902;DHT22;71369;50.796;3.290;2023-08-24T02:31:55;18.80;85.30
81902;DHT22;71369;50.796;3.290;2023-08-24T02:34:21;18.70;85.80
81902;DHT22;71369;50.796;3.290;2023-08-24T02:36:47;18.70;85.90
81902;DHT22;71369;50.796;3.290;2023-08-24T02:39:12;18.70;86.10
81902;DHT22;71369;50.796;3.290;2023-08-24T02:41:38;18.70;86.10
81902;DHT22;71369;50.796;3.290;2023-08-24T02:44:04;18.70;85.90
81902;DHT22;71369;50.796;3.290;2023-08-24T02:46:30;18.70;85.80
81902;DHT22;71369;50.796;3.290;2023-08-24T02:48:56;18.60;86.40
81902;DHT22;71369;50.796;3.290;2023-08-24T02:51:22;18.50;87.00
81902;DHT22;71369;50.796;3.290;2023-08-24T02:53:49;18.40;87.80
81902;DHT22;71369;50.796;3.290;2023-08-24T02:56:14;18.40;87.80
81902;DHT22;71369;50.796;3.290;2023-08-24T02:58:40;18.40;87.20
81902;DHT22;71369;50.796;3.290;2023-08-24T03:01:06;18.40;87.00
81902;DHT22;71369;50.796;3.290;2023-08-24T03:03:33;18.50;86.20
81902;DHT22;71369;50.796;3.290;2023-08-24T03:06:02;18.40;86.20
81902;DHT22;71369;50.796;3.290;2023-08-24T03:08:29;18.40;86.70
81902;DHT22;71369;50.796;3.290;2023-08-24T03:10:55;18.40;86.80
81902;DHT22;71369;50.796;3.290;2023-08-24T03:13:20;18.40;87.10
81902;DHT22;71369;50.796;3.290;2023-08-24T03:15:46;18.40;86.70
81902;DHT22;71369;50.796;3.290;2023-08-24T03:18:13;18.50;85.90
81902;DHT22;71369;50.796;3.290;2023-08-24T03:20:39;18.60;86.00
81902;DHT22;71369;50.796;3.290;2023-08-24T03:23:05;18.50;86.70
81902;DHT22;71369;50.796;3.290;2023-08-24T03:25:35;18.50;86.20
81902;DHT22;71369;50.796;3.290;2023-08-24T03:28:02;18.50;86.80
81902;DHT22;71369;50.796;3.290;2023-08-24T03:30:28;18.50;86.10
81902;DHT22;71369;50.796;3.290;2023-08-24T03:32:54;18.50;85.80
81902;DHT22;71369;50.796;3.290;2023-08-24T03:35:20;18.50;85.80
81902;DHT22;71369;50.796;3.290;2023-08-24T03:37:46;18.60;86.20
81902;DHT22;71369;50.796;3.290;2023-08-24T03:40:13;18.60;85.60
81902;DHT22;71369;50.796;3.290;2023-08-24T03:42:38;18.50;85.60
81902;DHT22;71369;50.796;3.290;2023-08-24T03:45:05;18.60;85.30
81902;DHT22;71369;50.796;3.290;2023-08-24T03:47:31;18.70;85.20
81902;DHT22;71369;50.796;3.290;2023-08-24T03:49:57;18.70;84.70
81902;DHT22;71369;50.796;3.290;2023-08-24T03:52:22;18.70;84.80
81902;DHT22;71369;50.796;3.290;2023-08-24T03:54:48;18.70;84.90
81902;DHT22;71369;50.796;3.290;2023-08-24T03:57:14;18.70;84.90
81902;DHT22;71369;50.796;3.290;2023-08-24T03:59:41;18.70;85.10
81902;DHT22;71369;50.796;3.290;2023-08-24T04:02:07;18.70;85.10
81902;DHT22;71369;50.796;3.290;2023-08-24T04:04:33;18.70;85.50
81902;DHT22;71369;50.796;3.290;2023-08-24T04:06:58;18.70;85.70
81902;DHT22;71369;50.796;3.290;2023-08-24T04:09:24;18.70;85.20
81902;DHT22;71369;50.796;3.290;2023-08-24T04:11:50;18.70;85.60
81902;DHT22;71369;50.796;3.290;2023-08-24T04:14:16;18.70;85.90
81902;DHT22;71369;50.796;3.290;2023-08-24T04:16:41;18.70;86.10
81902;DHT22;71369;50.796;3.290;2023-08-24T04:19:08;18.60;86.00
81902;DHT22;71369;50.796;3.290;2023-08-24T04:21:33;18.60;86.20
81902;DHT22;71369;50.796;3.290;2023-08-24T04:23:59;18.60;86.30
81902;DHT22;71369;50.796;3.290;2023-08-24T04:26:25;18.60;86.00
81902;DHT22;71369;50.796;3.290;2023-08-24T04:28:51;18.50;86.70
81902;DHT22;71369;50.796;3.290;2023-08-24T04:31:16;18.50;86.70
81902;DHT22;71369;50.796;3.290;2023-08-24T04:33:42;18.50;86.40
81902;DHT22;71369;50.796;3.290;2023-08-24T04:36:08;18.50;87.10
81902;DHT22;71369;50.796;3.290;2023-08-24T04:38:34;18.50;86.90
81902;DHT22;71369;50.796;3.290;2023-08-24T04:41:00;18.40;87.00
81902;DHT22;71369;50.796;3.290;2023-08-24T04:43:25;18.30;87.30
81902;DHT22;71369;50.796;3.290;2023-08-24T04:45:53;18.40;87.80
81902;DHT22;71369;50.796;3.290;2023-08-24T04:48:22;18.30;87.70
81902;DHT22;71369;50.796;3.290;2023-08-24T04:50:49;18.20;87.90
81902;DHT22;71369;50.796;3.290;2023-08-24T04:53:17;18.20;88.00
81902;DHT22;71369;50.796;3.290;2023-08-24T04:55:43;18.20;87.90
81902;DHT22;71369;50.796;3.290;2023-08-24T04:58:10;18.30;87.90
81902;DHT22;71369;50.796;3.290;2023-08-24T05:00:37;18.30;87.80
81902;DHT22;71369;50.796;3.290;2023-08-24T05:03:04;18.40;87.60
81902;DHT22;71369;50.796;3.290;2023-08-24T05:05:34;18.30;87.70
81902;DHT22;71369;50.796;3.290;2023-08-24T05:08:01;18.30;87.70
81902;DHT22;71369;50.796;3.290;2023-08-24T05:10:31;18.40;87.50
81902;DHT22;71369;50.796;3.290;2023-08-24T05:12:57;18.40;87.60
81902;DHT22;71369;50.796;3.290;2023-08-24T05:15:24;18.40;88.00
81902;DHT22;71369;50.796;3.290;2023-08-24T05:17:49;18.40;87.80
81902;DHT22;71369;50.796;3.290;2023-08-24T05:20:17;18.50;87.70
81902;DHT22;71369;50.796;3.290;2023-08-24T05:22:44;18.50;87.30
81902;DHT22;71369;50.796;3.290;2023-08-24T05:25:09;18.60;87.20
81902;DHT22;71369;50.796;3.290;2023-08-24T05:27:35;18.60;87.20
81902;DHT22;71369;50.796;3.290;2023-08-24T05:30:01;18.60;87.10
81902;DHT22;71369;50.796;3.290;2023-08-24T05:32:26;18.60;87.20
81902;DHT22;71369;50.796;3.290;2023-08-24T05:34:52;18.70;86.80
81902;DHT22;71369;50.796;3.290;2023-08-24T05:37:18;18.80;86.60
81902;DHT22;71369;50.796;3.290;2023-08-24T05:39:44;18.90;86.40
81902;DHT22;71369;50.796;3.290;2023-08-24T05:42:09;19.00;86.10
81902;DHT22;71369;50.796;3.290;2023-08-24T05:44:35;19.10;86.10
81902;DHT22;71369;50.796;3.290;2023-08-24T05:47:01;19.10;85.80
81902;DHT22;71369;50.796;3.290;2023-08-24T05:49:26;19.20;86.20
81902;DHT22;71369;50.796;3.290;2023-08-24T05:51:53;19.30;85.60
81902;DHT22;71369;50.796;3.290;2023-08-24T05:54:18;19.40;85.00
81902;DHT22;71369;50.796;3.290;2023-08-24T05:56:45;19.60;84.80
81902;DHT22;71369;50.796;3.290;2023-08-24T05:59:11;19.80;84.10
81902;DHT22;71369;50.796;3.290;2023-08-24T06:01:37;20.10;84.40
81902;DHT22;71369;50.796;3.290;2023-08-24T06:04:07;20.40;83.00
81902;DHT22;71369;50.796;3.290;2023-08-24T06:06:33;20.80;82.40
81902;DHT22;71369;50.796;3.290;2023-08-24T06:08:59;21.20;80.70
81902;DHT22;71369;50.796;3.290;2023-08-24T06:11:25;21.60;78.90
81902;DHT22;71369;50.796;3.290;2023-08-24T06:13:50;22.00;77.80
81902;DHT22;71369;50.796;3.290;2023-08-24T06:16:19;22.30;76.10
81902;DHT22;71369;50.796;3.290;2023-08-24T06:18:45;22.50;74.80
81902;DHT22;71369;50.796;3.290;2023-08-24T06:21:11;22.70;74.90
81902;DHT22;71369;50.796;3.290;2023-08-24T06:23:38;22.80;74.00
81902;DHT22;71369;50.796;3.290;2023-08-24T06:26:04;22.90;73.20
81902;DHT22;71369;50.796;3.290;2023-08-24T06:28:30;23.00;72.40
81902;DHT22;71369;50.796;3.290;2023-08-24T06:30:56;23.20;72.40
81902;DHT22;71369;50.796;3.290;2023-08-24T06:33:27;23.30;71.70
81902;DHT22;71369;50.796;3.290;2023-08-24T06:35:56;23.40;71.10
81902;DHT22;71369;50.796;3.290;2023-08-24T06:38:22;23.60;71.20
81902;DHT22;71369;50.796;3.290;2023-08-24T06:40:48;23.60;71.00
81902;DHT22;71369;50.796;3.290;2023-08-24T06:43:14;23.60;70.90
81902;DHT22;71369;50.796;3.290;2023-08-24T06:45:40;23.60;70.30
81902;DHT22;71369;50.796;3.290;2023-08-24T06:48:06;23.60;70.80
81902;DHT22;71369;50.796;3.290;2023-08-24T06:50:33;23.50;71.10
81902;DHT22;71369;50.796;3.290;2023-08-24T06:52:59;23.50;71.50
81902;DHT22;71369;50.796;3.290;2023-08-24T06:55:26;23.40;72.00
81902;DHT22;71369;50.796;3.290;2023-08-24T06:57:52;23.30;72.50
81902;DHT22;71369;50.796;3.290;2023-08-24T07:00:21;23.30;73.50
81902;DHT22;71369;50.796;3.290;2023-08-24T07:02:49;23.20;74.10
81902;DHT22;71369;50.796;3.290;2023-08-24T07:05:15;23.10;73.60
81902;DHT22;71369;50.796;3.290;2023-08-24T07:07:47;23.00;74.80
81902;DHT22;71369;50.796;3.290;2023-08-24T07:10:14;22.90;75.10
81902;DHT22;71369;50.796;3.290;2023-08-24T07:12:40;22.90;74.40
81902;DHT22;71369;50.796;3.290;2023-08-24T07:15:07;22.70;75.20
81902;DHT22;71369;50.796;3.290;2023-08-24T07:17:33;22.50;77.60
81902;DHT22;71369;50.796;3.290;2023-08-24T07:19:59;22.50;77.40
81902;DHT22;71369;50.796;3.290;2023-08-24T07:22:25;22.30;78.40
81902;DHT22;71369;50.796;3.290;2023-08-24T07:24:53;22.40;78.20
81902;DHT22;71369;50.796;3.290;2023-08-24T07:27:19;22.40;78.20
81902;DHT22;71369;50.796;3.290;2023-08-24T07:29:45;22.40;77.50
81902;DHT22;71369;50.796;3.290;2023-08-24T07:32:11;22.50;76.90
81902;DHT22;71369;50.796;3.290;2023-08-24T07:34:37;22.50;77.30
81902;DHT22;71369;50.796;3.290;2023-08-24T07:37:03;22.40;77.30
81902;DHT22;71369;50.796;3.290;2023-08-24T07:39:29;22.40;78.00
81902;DHT22;71369;50.796;3.290;2023-08-24T07:41:54;22.40;78.50
81902;DHT22;71369;50.796;3.290;2023-08-24T07:44:20;22.40;78.30
81902;DHT22;71369;50.796;3.290;2023-08-24T07:46:47;22.40;79.90
81902;DHT22;71369;50.796;3.290;2023-08-24T07:49:13;22.30;79.00
81902;DHT22;71369;50.796;3.290;2023-08-24T07:51:39;22.30;79.20
81902;DHT22;71369;50.796;3.290;2023-08-24T07:54:05;22.20;79.70
81902;DHT22;71369;50.796;3.290;2023-08-24T07:56:32;22.10;80.40
81902;DHT22;71369;50.796;3.290;2023-08-24T07:58:58;22.00;81.40
81902;DHT22;71369;50.796;3.290;2023-08-24T08:01:24;21.90;82.20
81902;DHT22;71369;50.796;3.290;2023-08-24T08:03:50;21.90;82.80
81902;DHT22;71369;50.796;3.290;2023-08-24T08:06:15;21.80;82.40
81902;DHT22;71369;50.796;3.290;2023-08-24T08:08:41;21.80;83.40
81902;DHT22;71369;50.796;3.290;2023-08-24T08:11:07;21.80;83.50
81902;DHT22;71369;50.796;3.290;2023-08-24T08:13:33;21.70;84.00
81902;DHT22;71369;50.796;3.290;2023-08-24T08:16:06;21.60;84.90
81902;DHT22;71369;50.796;3.290;2023-08-24T08:18:33;21.60;84.40
81902;DHT22;71369;50.796;3.290;2023-08-24T08:20:59;21.50;84.20
81902;DHT22;71369;50.796;3.290;2023-08-24T08:23:25;21.50;85.30
81902;DHT22;71369;50.796;3.290;2023-08-24T08:25:51;21.40;85.30
81902;DHT22;71369;50.796;3.290;2023-08-24T08:28:17;21.30;85.80
81902;DHT22;71369;50.796;3.290;2023-08-24T08:30:44;21.20;86.50
81902;DHT22;71369;50.796;3.290;2023-08-24T08:33:10;21.00;88.10
81902;DHT22;71369;50.796;3.290;2023-08-24T08:35:38;20.80;89.40
81902;DHT22;71369;50.796;3.290;2023-08-24T08:38:06;20.60;90.40
81902;DHT22;71369;50.796;3.290;2023-08-24T08:40:36;20.50;91.00
81902;DHT22;71369;50.796;3.290;2023-08-24T08:43:02;20.20;91.60
81902;DHT22;71369;50.796;3.290;2023-08-24T08:45:29;20.20;91.60
81902;DHT22;71369;50.796;3.290;2023-08-24T08:48:00;20.20;91.60
81902;DHT22;71369;50.796;3.290;2023-08-24T08:50:26;20.20;91.60
81902;DHT22;71369;50.796;3.290;2023-08-24T08:52:53;20.30;91.20
81902;DHT22;71369;50.796;3.290;2023-08-24T08:55:19;20.30;91.20
81902;DHT22;71369;50.796;3.290;2023-08-24T08:57:51;20.30;90.90
81902;DHT22;71369;50.796;3.290;2023-08-24T09:00:20;20.30;90.70
81902;DHT22;71369;50.796;3.290;2023-08-24T09:02:48;20.30;91.10
81902;DHT22;71369;50.796;3.290;2023-08-24T09:05:15;20.20;90.70
81902;DHT22;71369;50.796;3.290;2023-08-24T09:07:41;20.30;90.70
81902;DHT22;71369;50.796;3.290;2023-08-24T09:10:08;20.20;90.80
81902;DHT22;71369;50.796;3.290;2023-08-24T09:12:43;20.20;91.00
81902;DHT22;71369;50.796;3.290;2023-08-24T09:15:10;20.20;91.20
81902;DHT22;71369;50.796;3.290;2023-08-24T09:17:36;20.20;90.90
81902;DHT22;71369;50.796;3.290;2023-08-24T09:20:07;20.30;90.60
81902;DHT22;71369;50.796;3.290;2023-08-24T09:22:39;20.20;90.50
81902;DHT22;71369;50.796;3.290;2023-08-24T09:25:10;20.20;90.80
81902;DHT22;71369;50.796;3.290;2023-08-24T09:40:04;20.10;90.90
81902;DHT22;71369;50.796;3.290;2023-08-24T09:42:41;20.60;90.40
81902;DHT22;71369;50.796;3.290;2023-08-24T09:45:12;20.60;90.40
81902;DHT22;71369;50.796;3.290;2023-08-24T09:47:39;20.60;90.40
81902;DHT22;71369;50.796;3.290;2023-08-24T09:50:06;20.50;90.30
81902;DHT22;71369;50.796;3.290;2023-08-24T09:52:33;20.60;89.70
81902;DHT22;71369;50.796;3.290;2023-08-24T09:55:08;20.70;90.50
81902;DHT22;71369;50.796;3.290;2023-08-24T09:57:38;20.70;90.10
81902;DHT22;71369;50.796;3.290;2023-08-24T10:00:08;20.80;90.30
81902;DHT22;71369;50.796;3.290;2023-08-24T10:02:52;21.10;90.00
81902;DHT22;71369;50.796;3.290;2023-08-24T10:05:24;21.30;90.10
81902;DHT22;71369;50.796;3.290;2023-08-24T10:07:53;21.60;90.00
81902;DHT22;71369;50.796;3.290;2023-08-24T10:10:20;21.80;88.80
81902;DHT22;71369;50.796;3.290;2023-08-24T10:12:51;21.90;88.20
81902;DHT22;71369;50.796;3.290;2023-08-24T10:15:19;22.10;87.00
81902;DHT22;71369;50.796;3.290;2023-08-24T10:17:50;22.10;86.80
81902;DHT22;71369;50.796;3.290;2023-08-24T10:20:19;22.10;84.70
81902;DHT22;71369;50.796;3.290;2023-08-24T10:22:46;21.90;85.30
81902;DHT22;71369;50.796;3.290;2023-08-24T10:25:13;21.70;86.20
81902;DHT22;71369;50.796;3.290;2023-08-24T10:27:39;21.60;86.80
81902;DHT22;71369;50.796;3.290;2023-08-24T10:30:13;21.60;87.80
81902;DHT22;71369;50.796;3.290;2023-08-24T10:32:42;21.70;87.90
81902;DHT22;71369;50.796;3.290;2023-08-24T10:35:11;21.80;87.40
81902;DHT22;71369;50.796;3.290;2023-08-24T10:37:37;21.90;87.90
81902;DHT22;71369;50.796;3.290;2023-08-24T10:40:04;22.00;87.30
81902;DHT22;71369;50.796;3.290;2023-08-24T10:42:48;22.10;86.20
81902;DHT22;71369;50.796;3.290;2023-08-24T10:45:14;22.20;85.50
81902;DHT22;71369;50.796;3.290;2023-08-24T10:47:46;22.30;85.50
81902;DHT22;71369;50.796;3.290;2023-08-24T10:50:13;22.20;84.70
81902;DHT22;71369;50.796;3.290;2023-08-24T10:52:43;22.20;84.20
81902;DHT22;71369;50.796;3.290;2023-08-24T10:55:23;22.00;85.30
81902;DHT22;71369;50.796;3.290;2023-08-24T10:58:15;21.90;86.40
81902;DHT22;71369;50.796;3.290;2023-08-24T11:00:48;21.90;86.30
81902;DHT22;71369;50.796;3.290;2023-08-24T11:03:31;21.80;86.20
81902;DHT22;71369;50.796;3.290;2023-08-24T11:05:57;21.70;86.20
81902;DHT22;71369;50.796;3.290;2023-08-24T11:08:49;21.70;85.80
81902;DHT22;71369;50.796;3.290;2023-08-24T11:11:22;21.70;86.40
81902;DHT22;71369;50.796;3.290;2023-08-24T11:16:40;21.70;87.00
81902;DHT22;71369;50.796;3.290;2023-08-24T11:19:06;21.50;86.90
81902;DHT22;71369;50.796;3.290;2023-08-24T11:21:33;21.40;87.00
81902;DHT22;71369;50.796;3.290;2023-08-24T11:24:02;21.40;87.50
81902;DHT22;71369;50.796;3.290;2023-08-24T11:26:29;21.50;86.70
81902;DHT22;71369;50.796;3.290;2023-08-24T11:28:56;21.50;87.50
81902;DHT22;71369;50.796;3.290;2023-08-24T11:31:23;21.50;87.10
81902;DHT22;71369;50.796;3.290;2023-08-24T11:33:54;21.50;87.60
81902;DHT22;71369;50.796;3.290;2023-08-24T11:36:22;21.50;86.90
81902;DHT22;71369;50.796;3.290;2023-08-24T11:38:57;21.40;87.50
81902;DHT22;71369;50.796;3.290;2023-08-24T11:41:23;21.50;87.50
81902;DHT22;71369;50.796;3.290;2023-08-24T11:43:49;21.50;87.90
81902;DHT22;71369;50.796;3.290;2023-08-24T11:46:23;21.60;87.10
81902;DHT22;71369;50.796;3.290;2023-08-24T11:48:49;21.70;85.90
81902;DHT22;71369;50.796;3.290;2023-08-24T11:51:15;21.80;86.70
81902;DHT22;71369;50.796;3.290;2023-08-24T11:53:45;21.70;86.10
81902;DHT22;71369;50.796;3.290;2023-08-24T11:56:11;21.70;86.60
81902;DHT22;71369;50.796;3.290;2023-08-24T11:58:42;21.90;85.80
81902;DHT22;71369;50.796;3.290;2023-08-24T12:01:08;21.90;86.70
81902;DHT22;71369;50.796;3.290;2023-08-24T12:03:46;22.00;85.30
81902;DHT22;71369;50.796;3.290;2023-08-24T12:06:15;22.10;85.20
81902;DHT22;71369;50.796;3.290;2023-08-24T12:08:44;22.10;83.90
81902;DHT22;71369;50.796;3.290;2023-08-24T12:11:14;22.20;83.60
81902;DHT22;71369;50.796;3.290;2023-08-24T12:13:51;22.30;83.60
81902;DHT22;71369;50.796;3.290;2023-08-24T12:16:17;22.30;81.80
81902;DHT22;71369;50.796;3.290;2023-08-24T12:18:54;22.30;82.40
81902;DHT22;71369;50.796;3.290;2023-08-24T12:21:24;22.40;82.10
81902;DHT22;71369;50.796;3.290;2023-08-24T12:24:02;22.30;82.20
81902;DHT22;71369;50.796;3.290;2023-08-24T12:26:35;22.30;83.00
81902;DHT22;71369;50.796;3.290;2023-08-24T12:29:05;22.40;82.30
81902;DHT22;71369;50.796;3.290;2023-08-24T12:31:32;22.50;82.70
81902;DHT22;71369;50.796;3.290;2023-08-24T12:36:29;22.60;81.30
81902;DHT22;71369;50.796;3.290;2023-08-24T12:38:58;22.60;80.70
81902;DHT22;71369;50.796;3.290;2023-08-24T12:41:24;22.70;80.60
81902;DHT22;71369;50.796;3.290;2023-08-24T12:43:51;22.60;80.80
81902;DHT22;71369;50.796;3.290;2023-08-24T12:46:17;22.70;80.80
81902;DHT22;71369;50.796;3.290;2023-08-24T12:48:43;22.70;80.10
81902;DHT22;71369;50.796;3.290;2023-08-24T12:51:09;22.70;80.70
81902;DHT22;71369;50.796;3.290;2023-08-24T12:53:34;22.90;79.90
81902;DHT22;71369;50.796;3.290;2023-08-24T12:56:00;23.00;79.50
81902;DHT22;71369;50.796;3.290;2023-08-24T12:58:26;23.20;79.30
81902;DHT22;71369;50.796;3.290;2023-08-24T13:00:51;23.30;77.30
81902;DHT22;71369;50.796;3.290;2023-08-24T13:03:17;23.40;77.50
81902;DHT22;71369;50.796;3.290;2023-08-24T13:05:43;23.60;76.20
81902;DHT22;71369;50.796;3.290;2023-08-24T13:08:09;23.70;76.50
81902;DHT22;71369;50.796;3.290;2023-08-24T13:10:35;23.80;76.10
81902;DHT22;71369;50.796;3.290;2023-08-24T13:13:05;24.00;75.70
81902;DHT22;71369;50.796;3.290;2023-08-24T13:15:30;24.40;73.60
81902;DHT22;71369;50.796;3.290;2023-08-24T13:17:56;24.70;72.60
81902;DHT22;71369;50.796;3.290;2023-08-24T13:20:23;24.90;72.90
81902;DHT22;71369;50.796;3.290;2023-08-24T13:22:49;24.90;70.70
81902;DHT22;71369;50.796;3.290;2023-08-24T13:25:14;24.90;71.50
81902;DHT22;71369;50.796;3.290;2023-08-24T13:27:40;25.00;71.40
81902;DHT22;71369;50.796;3.290;2023-08-24T13:30:06;25.10;69.90
81902;DHT22;71369;50.796;3.290;2023-08-24T13:32:33;24.90;70.00
81902;DHT22;71369;50.796;3.290;2023-08-24T13:35:00;24.90;71.70
81902;DHT22;71369;50.796;3.290;2023-08-24T13:37:26;24.90;71.40
81902;DHT22;71369;50.796;3.290;2023-08-24T13:39:52;24.70;70.80
81902;DHT22;71369;50.796;3.290;2023-08-24T13:42:18;24.80;70.60
81902;DHT22;71369;50.796;3.290;2023-08-24T13:44:45;24.70;70.60
81902;DHT22;71369;50.796;3.290;2023-08-24T13:47:11;24.70;69.40
81902;DHT22;71369;50.796;3.290;2023-08-24T13:49:37;24.70;70.40
81902;DHT22;71369;50.796;3.290;2023-08-24T13:52:03;24.90;70.70
81902;DHT22;71369;50.796;3.290;2023-08-24T13:54:29;25.00;69.00
81902;DHT22;71369;50.796;3.290;2023-08-24T13:56:56;25.10;69.80
81902;DHT22;71369;50.796;3.290;2023-08-24T13:59:26;25.10;68.80
81902;DHT22;71369;50.796;3.290;2023-08-24T14:01:52;25.00;68.70
81902;DHT22;71369;50.796;3.290;2023-08-24T14:04:18;25.00;69.80
81902;DHT22;71369;50.796;3.290;2023-08-24T14:06:45;24.90;69.20
81902;DHT22;71369;50.796;3.290;2023-08-24T14:09:10;24.70;70.30
81902;DHT22;71369;50.796;3.290;2023-08-24T14:11:36;24.60;71.10
81902;DHT22;71369;50.796;3.290;2023-08-24T14:14:02;24.50;71.30
81902;DHT22;71369;50.796;3.290;2023-08-24T14:16:27;24.50;71.40
81902;DHT22;71369;50.796;3.290;2023-08-24T14:18:53;24.40;71.80
81902;DHT22;71369;50.796;3.290;2023-08-24T14:21:19;24.40;72.40
81902;DHT22;71369;50.796;3.290;2023-08-24T14:23:46;24.50;72.30
81902;DHT22;71369;50.796;3.290;2023-08-24T14:26:11;24.70;72.40
81902;DHT22;71369;50.796;3.290;2023-08-24T14:28:57;24.70;72.60
81902;DHT22;71369;50.796;3.290;2023-08-24T14:31:32;24.90;72.20
81902;DHT22;71369;50.796;3.290;2023-08-24T14:33:58;25.00;70.70
81902;DHT22;71369;50.796;3.290;2023-08-24T14:36:24;25.10;70.20
81902;DHT22;71369;50.796;3.290;2023-08-24T14:38:50;25.10;69.10
81902;DHT22;71369;50.796;3.290;2023-08-24T14:41:20;25.10;68.20
81902;DHT22;71369;50.796;3.290;2023-08-24T14:43:46;25.10;69.30
81902;DHT22;71369;50.796;3.290;2023-08-24T14:46:12;25.30;67.80
81902;DHT22;71369;50.796;3.290;2023-08-24T14:48:38;25.30;67.70
81902;DHT22;71369;50.796;3.290;2023-08-24T14:51:05;25.60;69.10
81902;DHT22;71369;50.796;3.290;2023-08-24T14:53:31;25.80;68.80
81902;DHT22;71369;50.796;3.290;2023-08-24T14:55:57;25.80;66.00
81902;DHT22;71369;50.796;3.290;2023-08-24T14:58:24;25.80;66.00
81902;DHT22;71369;50.796;3.290;2023-08-24T15:00:53;25.70;65.50
81902;DHT22;71369;50.796;3.290;2023-08-24T15:03:22;25.80;66.70
81902;DHT22;71369;50.796;3.290;2023-08-24T15:06:04;26.00;67.40
81902;DHT22;71369;50.796;3.290;2023-08-24T15:08:33;26.00;64.10
81902;DHT22;71369;50.796;3.290;2023-08-24T15:11:00;25.90;64.40
81902;DHT22;71369;50.796;3.290;2023-08-24T15:13:28;25.80;64.50
81902;DHT22;71369;50.796;3.290;2023-08-24T15:15:55;25.80;66.60
81902;DHT22;71369;50.796;3.290;2023-08-24T15:18:22;25.90;65.40
81902;DHT22;71369;50.796;3.290;2023-08-24T15:20:48;25.90;65.30
81902;DHT22;71369;50.796;3.290;2023-08-24T15:23:23;25.90;65.40
81902;DHT22;71369;50.796;3.290;2023-08-24T15:25:48;25.80;64.80
81902;DHT22;71369;50.796;3.290;2023-08-24T15:28:14;25.60;65.50
81902;DHT22;71369;50.796;3.290;2023-08-24T15:30:40;25.50;65.10
81902;DHT22;71369;50.796;3.290;2023-08-24T15:33:06;25.60;66.70
81902;DHT22;71369;50.796;3.290;2023-08-24T15:35:31;25.60;66.70
81902;DHT22;71369;50.796;3.290;2023-08-24T15:37:57;25.80;67.50
81902;DHT22;71369;50.796;3.290;2023-08-24T15:40:23;25.80;64.90
81902;DHT22;71369;50.796;3.290;2023-08-24T15:42:51;25.80;65.90
81902;DHT22;71369;50.796;3.290;2023-08-24T15:45:17;25.80;66.20
81902;DHT22;71369;50.796;3.290;2023-08-24T15:47:45;25.60;66.10
81902;DHT22;71369;50.796;3.290;2023-08-24T15:50:11;25.70;65.50
81902;DHT22;71369;50.796;3.290;2023-08-24T15:52:37;25.70;66.40
81902;DHT22;71369;50.796;3.290;2023-08-24T15:55:03;25.70;66.00